Search for airport 
image banner adimage banner adimage banner ad
image banner ad

0PS7 - Harman

Located in Elizabethville, United States

ICAO - 0PS7, IATA -

Data provided by Airmate  

General information

Coordinates: N40°31'20" W76°50'44"
Elevation is 720 feet MSL.
Magnetic variation is -10° East
View others Airports in Pennsylvania

Operational data

Special qualification required
Current time UTC:
Current local time:
METAR: KMUI 132017Z AUTO 00000KT 7SM BKN013 OVC020 21/21 A2989 RMK AO2 DZE17 CIG 013V020 BKN V SCT SLPNO
View NOTAMs / SUP AIP / TFR affecting this airport [VIEW]
Communications frequencies: [VIEW]

Runways:

RWY identifierQFULength (ft)Width (ft)SurfaceLDA (ft)
081900150GRASS
261900150GRASS

Airport contact information

Address: Elizabethville United States

Satellite view of 0PS7